Time;durP1;ratioP1;P1;durP2;ratioP2;P2;SDS_P1;SDS_P2;PMS_P1;PMS_P2;Temp;Humidity;BMP_temperature;BMP_pressure;BME280_temperature;BME280_humidity;BME280_pressure;Samples;Min_cycle;Max_cycle;Signal;HPM_P1;HPM_P2
2022/10/27 00:02:17;;;;;;;12.95;6.00;;;13.20;99.90;;;;;;4889157;29;20515;-60
2022/10/27 00:04:43;;;;;;;12.48;5.28;;;13.20;99.90;;;;;;4882793;29;20115;-59
2022/10/27 00:07:09;;;;;;;13.17;5.53;;;13.20;99.90;;;;;;4845728;29;1219922;-60
2022/10/27 00:09:35;;;;;;;14.75;5.22;;;13.20;99.90;;;;;;4886031;29;20388;-58
2022/10/27 00:12:00;;;;;;;13.75;5.07;;;13.20;99.90;;;;;;4889220;29;20080;-60
2022/10/27 00:14:26;;;;;;;14.75;5.32;;;13.20;99.90;;;;;;4884032;29;20090;-58
2022/10/27 00:16:54;;;;;;;13.65;5.18;;;13.20;99.90;;;;;;4895843;29;20400;-59
2022/10/27 00:19:21;;;;;;;9.70;4.95;;;13.20;99.90;;;;;;4886927;29;20135;-59
2022/10/27 00:21:47;;;;;;;13.07;5.03;;;13.20;99.90;;;;;;4884092;29;20062;-60
2022/10/27 00:24:12;;;;;;;10.75;5.18;;;13.20;99.90;;;;;;4885424;29;20047;-60
2022/10/27 00:26:38;;;;;;;15.90;5.32;;;13.20;99.90;;;;;;4883788;29;20471;-59
2022/10/27 00:29:04;;;;;;;13.55;4.88;;;13.20;99.90;;;;;;4889505;29;20063;-59
2022/10/27 00:31:30;;;;;;;10.68;4.93;;;13.20;99.90;;;;;;4883613;29;20048;-59
2022/10/27 00:33:56;;;;;;;14.73;4.85;;;13.20;99.90;;;;;;4889712;29;20078;-60
2022/10/27 00:36:23;;;;;;;13.10;5.13;;;13.20;99.90;;;;;;4882087;29;20510;-60
2022/10/27 00:38:52;;;;;;;17.48;5.20;;;13.20;99.90;;;;;;4886363;29;20434;-60
2022/10/27 00:41:34;;;;;;;15.60;5.18;;;13.20;99.90;;;;;;4897649;29;20063;-59
2022/10/27 00:44:22;;;;;;;9.63;4.70;;;13.20;99.90;;;;;;4887857;29;20056;-59
2022/10/27 00:46:48;;;;;;;13.15;4.82;;;13.10;99.90;;;;;;4890049;29;20051;-59
2022/10/27 00:49:18;;;;;;;17.02;4.88;;;13.10;99.90;;;;;;4887733;29;20155;-59
2022/10/27 00:51:55;;;;;;;13.07;5.10;;;13.10;99.90;;;;;;4886186;29;20045;-60
2022/10/27 00:54:22;;;;;;;14.18;4.90;;;13.10;99.90;;;;;;4886812;29;20420;-59
2022/10/27 00:56:51;;;;;;;13.93;4.50;;;13.10;99.90;;;;;;4886494;29;20068;-59
2022/10/27 00:59:18;;;;;;;11.60;4.63;;;13.10;99.90;;;;;;4886171;29;20071;-58
2022/10/27 01:01:44;;;;;;;12.85;5.20;;;13.00;99.90;;;;;;4891887;29;20124;-60
2022/10/27 01:04:12;;;;;;;13.00;5.40;;;13.00;99.90;;;;;;4890211;29;20048;-60
2022/10/27 01:06:38;;;;;;;10.57;5.03;;;13.00;99.90;;;;;;4886335;29;20387;-60
2022/10/27 01:09:04;;;;;;;19.83;5.28;;;13.00;99.90;;;;;;4886910;29;20139;-59
2022/10/27 01:11:30;;;;;;;12.75;6.60;;;13.00;99.90;;;;;;4917898;28;20263;-59
2022/10/27 01:13:56;;;;;;;17.58;5.63;;;13.00;99.90;;;;;;4917643;28;20466;-60
2022/10/27 01:16:58;;;;;;;17.83;5.50;;;13.00;99.90;;;;;;4885181;29;22609;-60
2022/10/27 01:19:59;;;;;;;15.38;6.15;;;13.00;99.90;;;;;;4886921;29;20749;-60
2022/10/27 01:22:46;;;;;;;16.70;6.13;;;13.00;99.90;;;;;;4885523;29;20052;-60
2022/10/27 01:25:27;;;;;;;11.85;5.80;;;13.00;99.90;;;;;;4889281;29;20056;-60
2022/10/27 01:28:20;;;;;;;13.70;6.78;;;13.00;99.90;;;;;;4887425;29;20736;-59
2022/10/27 01:31:10;;;;;;;16.02;6.65;;;13.00;99.90;;;;;;4916533;28;20802;-59
2022/10/27 01:34:09;;;;;;;17.02;7.10;;;13.00;99.90;;;;;;4889085;29;20111;-60
2022/10/27 01:36:49;;;;;;;14.68;7.03;;;13.00;99.90;;;;;;4884489;29;20096;-60
2022/10/27 01:39:28;;;;;;;16.42;7.00;;;13.10;99.90;;;;;;4887849;29;20052;-60
2022/10/27 01:42:39;;;;;;;17.05;7.70;;;13.10;99.90;;;;;;4887917;29;20067;-60
2022/10/27 01:45:09;;;;;;;16.98;7.72;;;13.10;99.90;;;;;;4922682;28;20079;-59
2022/10/27 01:47:36;;;;;;;15.23;7.88;;;13.10;99.90;;;;;;4892535;28;20517;-60
2022/10/27 01:50:03;;;;;;;18.90;7.93;;;13.10;99.90;;;;;;4889672;29;20044;-60
2022/10/27 01:52:42;;;;;;;13.65;7.10;;;13.10;99.90;;;;;;4886660;29;20099;-58
2022/10/27 01:55:16;;;;;;;18.73;7.68;;;13.20;99.90;;;;;;4889005;29;20801;-59
2022/10/27 01:57:57;;;;;;;19.08;7.75;;;13.20;99.90;;;;;;4918530;28;20057;-60
2022/10/27 02:00:23;;;;;;;15.52;7.53;;;13.20;99.90;;;;;;4891155;29;20047;-59
2022/10/27 02:02:56;;;;;;;22.65;8.55;;;13.20;99.90;;;;;;4892777;29;20044;-60
2022/10/27 02:06:02;;;;;;;16.92;7.72;;;13.20;99.90;;;;;;4895317;29;22630;-59
2022/10/27 02:08:50;;;;;;;21.85;7.63;;;13.20;99.90;;;;;;4859058;29;20054;-59
2022/10/27 02:11:16;;;;;;;21.83;7.80;;;13.20;99.90;;;;;;4887193;29;20178;-58
2022/10/27 02:13:44;;;;;;;14.15;7.32;;;13.20;99.90;;;;;;4889486;29;20701;-59
2022/10/27 02:16:22;;;;;;;14.88;7.35;;;13.20;99.90;;;;;;4888718;29;20161;-58
2022/10/27 02:19:18;;;;;;;15.77;8.07;;;13.20;99.90;;;;;;4889293;29;20466;-59
2022/10/27 02:21:48;;;;;;;17.50;7.95;;;13.20;99.90;;;;;;4888951;29;20052;-59
2022/10/27 02:24:14;;;;;;;18.95;7.85;;;13.20;99.90;;;;;;4919805;28;20445;-59
2022/10/27 02:26:58;;;;;;;17.45;7.90;;;13.20;99.90;;;;;;4888720;29;20063;-59
2022/10/27 02:29:46;;;;;;;17.92;8.30;;;13.20;99.90;;;;;;4887362;29;20064;-60
2022/10/27 02:32:17;;;;;;;15.65;7.78;;;13.20;99.90;;;;;;4889482;29;20058;-59
2022/10/27 02:34:44;;;;;;;17.70;8.43;;;13.20;99.90;;;;;;4885187;29;20161;-59
2022/10/27 02:37:18;;;;;;;16.80;8.05;;;13.20;99.90;;;;;;4905048;29;20049;-59
2022/10/27 02:39:43;;;;;;;19.00;7.75;;;13.20;99.90;;;;;;4920558;28;20416;-58
2022/10/27 02:42:09;;;;;;;20.13;8.70;;;13.20;99.90;;;;;;4919595;28;20080;-59
2022/10/27 02:44:35;;;;;;;13.88;7.72;;;13.20;99.90;;;;;;4921633;28;20140;-59
2022/10/27 02:47:01;;;;;;;18.30;8.65;;;13.20;99.90;;;;;;4889438;29;20052;-58
2022/10/27 02:49:26;;;;;;;14.30;8.60;;;13.20;99.90;;;;;;4890649;29;20131;-60
2022/10/27 02:51:52;;;;;;;19.23;8.57;;;13.20;99.90;;;;;;4892477;29;20115;-59
2022/10/27 02:54:18;;;;;;;18.08;8.38;;;13.20;99.90;;;;;;4890888;29;22152;-60
2022/10/27 02:56:44;;;;;;;18.98;9.15;;;13.10;99.90;;;;;;4889083;29;20052;-59
2022/10/27 02:59:09;;;;;;;12.07;8.50;;;13.10;99.90;;;;;;4890090;29;20078;-59
2022/10/27 03:01:36;;;;;;;13.82;8.77;;;13.10;99.90;;;;;;4888186;29;20056;-58
2022/10/27 03:04:03;;;;;;;16.92;8.82;;;13.10;99.90;;;;;;4890694;29;20946;-59
2022/10/27 03:06:29;;;;;;;20.02;9.73;;;13.10;99.90;;;;;;4903341;29;20060;-59
2022/10/27 03:08:55;;;;;;;16.80;8.85;;;13.10;99.90;;;;;;4889661;29;20566;-59
2022/10/27 03:11:20;;;;;;;24.08;9.80;;;13.10;99.90;;;;;;4888127;29;20440;-60
2022/10/27 03:13:46;;;;;;;17.77;9.60;;;13.00;99.90;;;;;;4887976;29;20055;-58
2022/10/27 03:16:12;;;;;;;17.40;9.45;;;13.00;99.90;;;;;;4891305;29;20063;-60
2022/10/27 03:18:38;;;;;;;17.27;9.93;;;13.00;99.90;;;;;;4921568;29;20406;-59
2022/10/27 03:21:03;;;;;;;22.60;10.10;;;13.00;99.90;;;;;;4896100;29;20182;-58
2022/10/27 03:23:29;;;;;;;14.85;9.43;;;13.00;99.90;;;;;;4891582;29;20123;-59
2022/10/27 03:25:55;;;;;;;20.85;9.75;;;13.00;99.90;;;;;;4889629;29;20059;-60
2022/10/27 03:28:21;;;;;;;15.50;9.77;;;13.00;99.90;;;;;;4889401;29;20052;-60
2022/10/27 03:30:46;;;;;;;15.38;9.27;;;13.00;99.90;;;;;;4889221;29;20475;-60
2022/10/27 03:33:12;;;;;;;17.75;9.32;;;13.00;99.90;;;;;;4921023;28;20486;-58
2022/10/27 03:35:38;;;;;;;18.30;9.55;;;13.10;99.90;;;;;;4888575;29;20987;-58
2022/10/27 03:38:04;;;;;;;16.75;9.00;;;13.10;99.90;;;;;;4890620;29;20059;-59
2022/10/27 03:40:30;;;;;;;18.35;9.10;;;13.10;99.90;;;;;;4888328;29;20072;-60
2022/10/27 03:42:59;;;;;;;16.15;9.13;;;13.10;99.90;;;;;;4890123;29;20059;-59
2022/10/27 03:45:26;;;;;;;20.17;9.88;;;13.10;99.90;;;;;;4890914;29;20052;-58
2022/10/27 03:48:03;;;;;;;19.10;9.68;;;13.10;99.90;;;;;;4890175;29;20139;-59
2022/10/27 03:50:29;;;;;;;20.20;10.20;;;13.10;99.90;;;;;;4890030;29;20049;-58
2022/10/27 03:52:54;;;;;;;20.30;9.45;;;13.20;99.90;;;;;;4891691;29;20087;-60
2022/10/27 03:55:21;;;;;;;21.88;9.57;;;13.10;99.90;;;;;;4890737;29;20506;-62
2022/10/27 03:57:46;;;;;;;15.45;9.23;;;13.20;99.90;;;;;;4889933;29;20048;-59
2022/10/27 04:00:13;;;;;;;24.73;10.18;;;13.20;99.90;;;;;;4891792;29;20056;-59
2022/10/27 04:02:39;;;;;;;19.33;9.45;;;13.10;99.90;;;;;;4892041;29;20173;-60
2022/10/27 04:05:05;;;;;;;20.40;9.98;;;13.10;99.90;;;;;;4885464;29;20523;-60
2022/10/27 04:07:31;;;;;;;18.63;10.32;;;13.20;99.90;;;;;;4902624;29;20060;-59
2022/10/27 04:09:56;;;;;;;20.27;9.30;;;13.20;99.90;;;;;;4886772;29;20055;-61
2022/10/27 04:12:22;;;;;;;21.98;10.27;;;13.20;99.90;;;;;;4889435;29;20657;-59
2022/10/27 04:14:49;;;;;;;17.45;10.07;;;13.20;99.90;;;;;;4887612;29;20981;-59
2022/10/27 04:17:16;;;;;;;23.40;10.63;;;13.20;99.90;;;;;;4883812;29;20048;-60
2022/10/27 04:19:42;;;;;;;20.70;10.55;;;13.20;99.90;;;;;;4883862;29;20051;-60
2022/10/27 04:22:08;;;;;;;18.23;10.30;;;13.20;99.90;;;;;;4920503;28;20511;-60
2022/10/27 04:24:34;;;;;;;17.63;10.32;;;13.20;99.90;;;;;;4881492;29;20115;-60
2022/10/27 04:26:59;;;;;;;19.67;10.45;;;13.10;99.90;;;;;;4885281;29;20072;-60
2022/10/27 04:29:25;;;;;;;16.25;10.30;;;13.10;99.90;;;;;;4918938;28;20057;-59
2022/10/27 04:31:51;;;;;;;20.55;10.75;;;13.10;99.90;;;;;;4885141;29;20116;-59
2022/10/27 04:34:17;;;;;;;17.27;10.57;;;13.10;99.90;;;;;;4887982;29;20123;-60
2022/10/27 04:36:43;;;;;;;17.25;10.52;;;13.10;99.90;;;;;;4888423;29;20682;-60
2022/10/27 04:39:12;;;;;;;18.98;10.40;;;13.10;99.90;;;;;;4901215;29;20059;-59
2022/10/27 04:41:39;;;;;;;16.55;10.95;;;13.10;99.90;;;;;;4884594;29;20496;-59
2022/10/27 04:44:05;;;;;;;23.60;11.15;;;13.00;99.90;;;;;;4888701;29;20051;-60
2022/10/27 04:46:31;;;;;;;22.98;10.70;;;13.00;99.90;;;;;;4885628;29;20075;-61
2022/10/27 04:48:57;;;;;;;19.50;11.45;;;13.00;99.90;;;;;;4916898;28;20050;-60
2022/10/27 04:51:23;;;;;;;15.43;9.77;;;13.00;99.90;;;;;;4886562;29;20049;-60
2022/10/27 04:53:49;;;;;;;22.23;11.40;;;13.00;99.90;;;;;;4889602;29;20036;-60
2022/10/27 04:56:14;;;;;;;24.55;12.07;;;13.00;99.90;;;;;;4890339;29;20048;-59
2022/10/27 04:58:41;;;;;;;21.67;11.50;;;13.00;99.90;;;;;;4887165;29;20052;-61
2022/10/27 05:01:07;;;;;;;18.13;10.95;;;13.00;99.90;;;;;;4884319;29;20136;-60
2022/10/27 05:03:33;;;;;;;21.33;11.70;;;13.00;99.90;;;;;;4891070;29;20048;-59
2022/10/27 05:05:59;;;;;;;19.90;11.18;;;13.00;99.90;;;;;;4884152;29;20048;-60
2022/10/27 05:08:25;;;;;;;19.90;11.90;;;13.00;99.90;;;;;;4916058;28;20486;-59
2022/10/27 05:10:51;;;;;;;20.90;11.70;;;13.00;99.90;;;;;;4885901;29;20055;-60
2022/10/27 05:13:17;;;;;;;17.42;11.50;;;13.00;99.90;;;;;;4884544;29;20732;-60
2022/10/27 05:15:42;;;;;;;22.77;11.95;;;13.00;99.90;;;;;;4900088;28;20580;-60
2022/10/27 05:18:08;;;;;;;22.92;12.18;;;13.00;99.90;;;;;;4915258;28;20176;-61
2022/10/27 05:20:34;;;;;;;22.75;11.65;;;13.00;99.90;;;;;;4883845;29;20508;-59
2022/10/27 05:23:00;;;;;;;18.63;11.23;;;13.00;99.90;;;;;;4914075;28;20052;-60
2022/10/27 05:25:26;;;;;;;21.90;12.15;;;13.00;99.90;;;;;;4918400;28;20052;-59
2022/10/27 05:27:52;;;;;;;18.30;11.27;;;13.00;99.90;;;;;;4883367;29;20051;-61
2022/10/27 05:30:18;;;;;;;20.50;11.82;;;13.00;99.90;;;;;;4881973;29;20048;-60
2022/10/27 05:32:43;;;;;;;18.15;11.43;;;13.00;99.90;;;;;;4911921;28;20408;-60
2022/10/27 05:35:09;;;;;;;20.50;11.18;;;13.00;99.90;;;;;;4881957;29;20123;-60
2022/10/27 05:37:35;;;;;;;20.23;11.15;;;13.00;99.90;;;;;;4887128;29;20065;-59
2022/10/27 05:40:01;;;;;;;23.63;11.57;;;13.00;99.90;;;;;;4883810;29;20123;-61
2022/10/27 05:42:27;;;;;;;21.58;12.02;;;13.00;99.90;;;;;;4884836;29;20052;-59
2022/10/27 05:44:53;;;;;;;19.35;11.52;;;13.00;99.90;;;;;;4913190;28;20079;-59
2022/10/27 05:47:19;;;;;;;18.88;11.57;;;13.00;99.90;;;;;;4883298;29;20044;-59
2022/10/27 05:49:45;;;;;;;19.17;10.63;;;13.00;99.90;;;;;;4884528;29;20052;-60
2022/10/27 05:52:11;;;;;;;18.10;11.27;;;13.00;99.90;;;;;;4886967;29;20052;-60
2022/10/27 05:54:36;;;;;;;19.85;11.00;;;13.00;99.90;;;;;;4898338;29;20047;-60
2022/10/27 05:57:02;;;;;;;23.13;11.40;;;13.00;99.90;;;;;;4884312;29;20052;-60
2022/10/27 05:59:28;;;;;;;20.25;11.27;;;13.00;99.90;;;;;;4881010;29;20058;-60
2022/10/27 06:01:54;;;;;;;20.10;11.05;;;13.00;99.90;;;;;;4917230;28;20079;-60
2022/10/27 06:04:20;;;;;;;20.85;11.13;;;13.00;99.90;;;;;;4886812;29;20193;-59
2022/10/27 06:06:46;;;;;;;22.02;11.20;;;13.10;99.90;;;;;;4880819;29;20076;-60
2022/10/27 06:09:11;;;;;;;18.83;10.45;;;13.10;99.90;;;;;;4882057;29;20598;-59
2022/10/27 06:11:37;;;;;;;19.35;10.95;;;13.10;99.90;;;;;;4915165;28;20040;-60
2022/10/27 06:14:03;;;;;;;21.65;10.90;;;13.10;99.90;;;;;;4885278;29;20046;-59
2022/10/27 06:16:29;;;;;;;22.80;11.55;;;13.10;99.90;;;;;;4883384;29;20109;-58
2022/10/27 06:18:55;;;;;;;21.20;10.98;;;13.10;99.90;;;;;;4882906;29;20085;-54
2022/10/27 06:21:21;;;;;;;19.83;11.02;;;13.10;99.90;;;;;;4880535;29;20187;-54
2022/10/27 06:23:48;;;;;;;20.15;11.73;;;13.10;99.90;;;;;;4884105;29;20075;-52
2022/10/27 06:26:14;;;;;;;22.23;11.25;;;13.10;99.90;;;;;;4887162;29;20119;-54
2022/10/27 06:28:40;;;;;;;18.50;10.65;;;13.10;99.90;;;;;;4889058;29;20052;-52
2022/10/27 06:31:06;;;;;;;25.92;11.73;;;13.10;99.90;;;;;;4889324;29;20049;-54
2022/10/27 06:33:31;;;;;;;21.85;11.43;;;13.10;99.90;;;;;;4888164;29;20045;-54
2022/10/27 06:35:57;;;;;;;17.25;11.85;;;13.10;99.90;;;;;;4888048;29;20060;-54
2022/10/27 06:38:23;;;;;;;18.48;11.25;;;13.10;99.90;;;;;;4887954;29;20066;-54
2022/10/27 06:40:49;;;;;;;17.42;11.75;;;13.10;99.90;;;;;;4888712;29;20057;-55
2022/10/27 06:43:15;;;;;;;19.55;12.95;;;13.10;99.90;;;;;;4888901;29;20804;-54
2022/10/27 06:45:44;;;;;;;18.17;12.43;;;13.10;99.90;;;;;;4887929;29;20096;-51
2022/10/27 06:48:10;;;;;;;24.10;12.57;;;13.10;99.90;;;;;;4892113;29;20492;-52
2022/10/27 06:50:36;;;;;;;27.38;12.80;;;13.20;99.90;;;;;;4891256;29;20048;-52
2022/10/27 06:53:02;;;;;;;24.58;12.43;;;13.10;99.90;;;;;;4891389;29;20044;-54
2022/10/27 06:55:28;;;;;;;21.13;12.27;;;13.20;99.90;;;;;;4889332;29;20155;-55
2022/10/27 06:57:54;;;;;;;24.95;12.40;;;13.20;99.90;;;;;;4893681;29;20059;-52
2022/10/27 07:00:20;;;;;;;22.98;12.48;;;13.30;99.90;;;;;;4890327;29;20052;-54
2022/10/27 07:02:46;;;;;;;19.75;12.13;;;13.30;99.90;;;;;;4921847;28;20115;-54
2022/10/27 07:05:12;;;;;;;19.33;11.45;;;13.30;99.90;;;;;;4893320;29;20141;-53
2022/10/27 07:07:38;;;;;;;23.52;11.48;;;13.30;99.90;;;;;;4890849;29;20060;-53
2022/10/27 07:10:06;;;;;;;22.83;12.13;;;13.40;99.90;;;;;;4891097;29;20111;-54
2022/10/27 07:12:32;;;;;;;22.65;12.18;;;13.40;99.90;;;;;;4919857;28;20116;-54
2022/10/27 07:14:58;;;;;;;18.98;10.57;;;13.40;99.90;;;;;;4891645;29;20123;-53
2022/10/27 07:17:24;;;;;;;19.00;11.13;;;13.50;99.90;;;;;;4892225;29;20050;-53
2022/10/27 07:19:50;;;;;;;20.75;11.80;;;13.50;99.90;;;;;;4890274;29;20131;-55
2022/10/27 07:22:16;;;;;;;22.40;10.70;;;13.50;99.90;;;;;;4890952;29;20128;-52
2022/10/27 07:24:42;;;;;;;15.98;10.30;;;13.60;99.90;;;;;;4890984;29;20058;-52
2022/10/27 07:27:08;;;;;;;16.52;10.27;;;13.60;99.90;;;;;;4892357;29;20051;-54
2022/10/27 07:29:34;;;;;;;19.95;10.38;;;13.60;99.90;;;;;;4890177;29;20036;-53
2022/10/27 07:31:59;;;;;;;13.00;9.68;;;13.60;99.90;;;;;;4892839;29;20093;-55
2022/10/27 07:34:25;;;;;;;14.98;9.68;;;13.70;99.90;;;;;;4888360;29;20048;-52
2022/10/27 07:36:51;;;;;;;15.00;9.10;;;13.70;99.90;;;;;;4890956;29;20051;-54
2022/10/27 07:39:17;;;;;;;19.17;9.13;;;13.70;99.90;;;;;;4890562;29;20128;-54
2022/10/27 07:41:43;;;;;;;16.60;9.13;;;13.70;99.90;;;;;;4890501;29;21633;-53
2022/10/27 07:44:08;;;;;;;16.35;9.02;;;13.80;99.90;;;;;;4891503;29;20052;-52
2022/10/27 07:46:34;;;;;;;12.43;8.60;;;13.80;99.90;;;;;;4888344;29;20048;-54
2022/10/27 07:49:00;;;;;;;17.00;8.60;;;13.90;99.90;;;;;;4889223;29;20052;-54
2022/10/27 07:51:26;;;;;;;15.77;8.98;;;13.90;99.90;;;;;;4890325;29;20131;-54
2022/10/27 07:53:51;;;;;;;12.55;7.63;;;14.00;99.90;;;;;;4896811;29;20183;-54
2022/10/27 07:56:17;;;;;;;11.13;7.47;;;14.00;99.90;;;;;;4890489;29;20421;-55
2022/10/27 07:58:46;;;;;;;11.25;7.65;;;14.10;99.90;;;;;;4889718;29;20047;-54
2022/10/27 08:01:12;;;;;;;15.85;7.60;;;14.10;99.90;;;;;;4922446;28;20514;-53
2022/10/27 08:03:38;;;;;;;18.60;7.82;;;14.20;99.90;;;;;;4890514;29;20052;-55
2022/10/27 08:06:04;;;;;;;13.32;8.10;;;14.20;99.90;;;;;;4905190;29;20127;-54
2022/10/27 08:08:30;;;;;;;11.60;7.30;;;14.30;99.90;;;;;;4893157;29;20055;-54
2022/10/27 08:10:56;;;;;;;13.80;7.82;;;14.30;99.90;;;;;;4890090;29;20509;-54
2022/10/27 08:13:22;;;;;;;12.50;7.30;;;14.40;99.90;;;;;;4891980;29;20779;-55
2022/10/27 08:15:48;;;;;;;12.43;7.40;;;14.40;99.90;;;;;;4889732;29;20127;-55
2022/10/27 08:18:15;;;;;;;10.23;7.15;;;14.50;99.90;;;;;;4888799;29;20051;-54
2022/10/27 08:20:45;;;;;;;11.57;7.05;;;14.50;99.90;;;;;;4891624;29;20092;-55
2022/10/27 08:23:14;;;;;;;13.38;7.32;;;14.60;99.90;;;;;;4893204;29;20062;-53
2022/10/27 08:25:41;;;;;;;13.10;7.28;;;14.70;99.90;;;;;;4890595;29;20052;-55
2022/10/27 08:28:08;;;;;;;18.05;7.10;;;14.80;99.90;;;;;;4890654;29;20100;-51
2022/10/27 08:30:34;;;;;;;12.02;6.35;;;14.90;99.90;;;;;;4892148;29;20045;-54
2022/10/27 08:33:01;;;;;;;13.23;6.22;;;14.90;99.90;;;;;;4889291;29;20780;-53
2022/10/27 08:35:30;;;;;;;10.30;6.63;;;14.90;99.90;;;;;;4897905;29;20036;-53
2022/10/27 08:38:09;;;;;;;11.15;6.20;;;14.90;99.90;;;;;;4897238;29;20103;-55
2022/10/27 08:41:16;;;;;;;13.23;6.32;;;15.00;99.90;;;;;;4896027;29;20127;-53
2022/10/27 08:44:02;;;;;;;12.13;6.47;;;15.00;99.90;;;;;;4898601;29;20052;-56
2022/10/27 08:46:40;;;;;;;15.13;5.65;;;15.00;99.90;;;;;;4898580;29;20049;-55
2022/10/27 08:49:34;;;;;;;12.52;5.47;;;15.10;99.90;;;;;;4896595;29;20500;-55
2022/10/27 08:52:14;;;;;;;12.45;5.65;;;15.20;99.90;;;;;;4888472;29;20067;-55
2022/10/27 08:54:47;;;;;;;15.70;5.05;;;15.20;99.90;;;;;;4891508;29;20048;-54
2022/10/27 08:57:22;;;;;;;9.65;5.13;;;15.40;99.90;;;;;;4890564;29;20048;-54
2022/10/27 08:59:54;;;;;;;11.07;5.28;;;15.50;99.90;;;;;;4890443;29;20056;-55
2022/10/27 09:02:41;;;;;;;13.85;5.30;;;15.60;99.90;;;;;;4890979;29;20395;-54
2022/10/27 09:05:33;;;;;;;11.13;5.28;;;15.80;99.90;;;;;;4888236;29;20079;-55
2022/10/27 09:08:27;;;;;;;14.55;5.38;;;15.90;99.90;;;;;;4891252;29;20135;-53
2022/10/27 09:11:29;;;;;;;13.90;5.05;;;16.10;99.90;;;;;;4897693;29;20043;-55
2022/10/27 09:14:25;;;;;;;13.27;4.97;;;16.30;99.90;;;;;;4889540;29;20765;-55
2022/10/27 09:17:09;;;;;;;8.23;4.10;;;16.40;99.90;;;;;;4890880;29;20048;-54
2022/10/27 09:19:42;;;;;;;7.43;4.05;;;16.50;99.90;;;;;;4889493;29;20148;-55
2022/10/27 09:22:15;;;;;;;11.80;4.65;;;16.60;99.90;;;;;;4890523;29;20495;-53
2022/10/27 09:24:41;;;;;;;8.55;4.47;;;16.70;99.90;;;;;;4919122;28;20144;-54
2022/10/27 09:27:12;;;;;;;10.18;4.10;;;16.90;99.90;;;;;;4888306;29;20139;-54
2022/10/27 09:29:38;;;;;;;9.02;3.70;;;16.90;99.90;;;;;;4889020;29;20103;-52
2022/10/27 09:32:18;;;;;;;7.72;4.05;;;17.00;99.90;;;;;;4890246;29;20075;-55
2022/10/27 09:35:11;;;;;;;9.02;4.30;;;17.00;99.90;;;;;;4893508;29;20051;-53
2022/10/27 09:37:40;;;;;;;9.88;3.72;;;17.00;99.90;;;;;;4896436;29;20048;-55
2022/10/27 09:40:15;;;;;;;13.48;3.55;;;17.00;99.90;;;;;;4902104;29;20060;-55
2022/10/27 09:42:41;;;;;;;9.20;3.83;;;17.00;99.90;;;;;;4889474;29;20515;-53
2022/10/27 09:45:20;;;;;;;8.77;3.40;;;17.00;99.90;;;;;;4890446;29;20048;-54
2022/10/27 09:47:51;;;;;;;8.00;3.30;;;17.10;99.90;;;;;;4889380;29;20086;-55
2022/10/27 09:50:39;;;;;;;8.65;3.58;;;17.20;99.90;;;;;;4886002;29;20088;-53
2022/10/27 09:53:25;;;;;;;8.32;3.45;;;17.20;99.90;;;;;;4888917;29;22057;-53
2022/10/27 09:55:52;;;;;;;9.35;3.75;;;17.20;99.90;;;;;;4887505;29;20471;-54
2022/10/27 09:58:19;;;;;;;7.53;3.65;;;17.30;99.90;;;;;;4888597;29;20060;-53
2022/10/27 10:00:59;;;;;;;9.75;4.00;;;17.30;99.90;;;;;;4889030;29;20139;-54
2022/10/27 10:03:25;;;;;;;8.85;3.53;;;17.30;99.90;;;;;;4905220;29;20067;-54
2022/10/27 10:06:06;;;;;;;10.43;3.50;;;17.40;99.90;;;;;;4889524;29;20495;-53
2022/10/27 10:08:35;;;;;;;7.93;3.30;;;17.40;99.90;;;;;;4890185;29;20055;-54
2022/10/27 10:11:05;;;;;;;7.18;3.35;;;17.40;99.90;;;;;;4893679;29;20072;-54
2022/10/27 10:13:37;;;;;;;6.22;2.75;;;17.40;99.90;;;;;;4891416;29;20179;-55
2022/10/27 10:16:09;;;;;;;6.20;2.90;;;17.40;99.90;;;;;;4891510;29;20048;-54
2022/10/27 10:18:37;;;;;;;6.60;2.97;;;17.50;99.90;;;;;;4891843;29;20076;-54
2022/10/27 10:21:11;;;;;;;7.63;3.10;;;17.50;99.90;;;;;;4888411;29;20127;-54
2022/10/27 10:23:50;;;;;;;5.03;2.50;;;17.50;99.90;;;;;;4892008;29;20059;-53
2022/10/27 10:26:28;;;;;;;6.00;2.70;;;17.60;99.90;;;;;;4895077;29;20131;-54
2022/10/27 10:29:04;;;;;;;5.70;2.72;;;17.60;99.90;;;;;;4892334;29;20420;-54
2022/10/27 10:31:30;;;;;;;9.95;2.53;;;17.70;99.90;;;;;;4893946;29;20040;-54
2022/10/27 10:34:05;;;;;;;5.22;2.72;;;17.80;99.90;;;;;;4895060;29;20419;-55
2022/10/27 10:36:38;;;;;;;8.30;2.80;;;17.90;99.90;;;;;;4892014;29;20131;-55
2022/10/27 10:39:25;;;;;;;6.25;2.50;;;17.90;99.90;;;;;;4892968;29;20410;-55
2022/10/27 10:42:14;;;;;;;6.05;2.55;;;17.90;99.90;;;;;;4892484;29;20423;-54
2022/10/27 10:44:40;;;;;;;6.40;2.70;;;18.00;99.90;;;;;;4886507;29;20119;-54
2022/10/27 10:47:24;;;;;;;7.85;2.65;;;18.00;99.90;;;;;;4893292;29;20151;-55
2022/10/27 10:49:54;;;;;;;8.85;2.20;;;18.10;99.90;;;;;;4891982;29;20163;-54
2022/10/27 10:52:29;;;;;;;5.40;2.10;;;18.20;99.90;;;;;;4889351;29;20049;-55
2022/10/27 10:54:55;;;;;;;6.10;1.88;;;18.20;99.90;;;;;;4898212;29;20044;-55
2022/10/27 10:57:42;;;;;;;3.38;1.85;;;18.20;99.90;;;;;;4905355;29;20098;-55
2022/10/27 11:00:15;;;;;;;5.43;2.15;;;18.30;99.90;;;;;;4892364;29;20499;-55
2022/10/27 11:02:48;;;;;;;9.30;2.28;;;18.40;99.90;;;;;;4892230;29;20190;-54
2022/10/27 11:05:24;;;;;;;10.68;1.83;;;18.50;99.90;;;;;;4894263;29;20052;-54
2022/10/27 11:07:50;;;;;;;6.18;2.25;;;18.70;99.90;;;;;;4891301;29;20099;-55
2022/10/27 11:10:22;;;;;;;6.40;2.05;;;18.80;99.90;;;;;;4889724;29;20135;-53
2022/10/27 11:13:25;;;;;;;3.72;1.70;;;18.90;99.90;;;;;;4892223;29;20044;-54
2022/10/27 11:16:00;;;;;;;5.27;1.80;;;19.00;99.90;;;;;;4891804;29;20048;-54
2022/10/27 11:18:30;;;;;;;7.53;2.55;;;19.00;99.90;;;;;;4890933;29;20052;-54
2022/10/27 11:21:00;;;;;;;6.10;1.90;;;19.10;99.90;;;;;;4892888;29;20051;-55
2022/10/27 11:23:43;;;;;;;7.40;2.30;;;19.20;99.90;;;;;;4893085;29;20056;-55
2022/10/27 11:26:09;;;;;;;;;;;19.30;99.90;;;;;;4890600;29;20055;-54
2022/10/27 11:28:58;;;;;;;5.55;1.92;;;19.30;99.90;;;;;;4892299;29;19928;-55
2022/10/27 11:31:34;;;;;;;4.82;1.80;;;19.40;99.90;;;;;;4886041;29;20055;-55
2022/10/27 11:34:31;;;;;;;3.28;1.40;;;19.50;99.90;;;;;;4892438;29;20045;-53
2022/10/27 11:37:32;;;;;;;6.10;1.85;;;19.50;99.90;;;;;;4894489;29;20084;-55
2022/10/27 11:40:21;;;;;;;10.00;2.00;;;19.50;99.90;;;;;;4876682;29;20060;-55
2022/10/27 11:42:55;;;;;;;3.83;1.40;;;19.60;99.90;;;;;;4891733;29;20063;-56
2022/10/27 11:45:59;;;;;;;2.30;1.48;;;19.70;99.90;;;;;;4891231;29;20415;-55
2022/10/27 11:48:39;;;;;;;3.65;1.40;;;19.80;99.90;;;;;;4883489;29;20048;-54
2022/10/27 11:51:16;;;;;;;3.85;1.38;;;20.00;99.90;;;;;;4890724;29;20052;-54
2022/10/27 11:53:42;;;;;;;3.33;1.10;;;20.10;99.90;;;;;;4891598;29;20044;-55
2022/10/27 11:56:31;;;;;;;4.97;1.27;;;20.30;99.90;;;;;;4905762;29;20530;-55
2022/10/27 11:59:15;;;;;;;4.43;1.40;;;20.50;99.90;;;;;;4895038;29;20060;-56
2022/10/27 12:01:46;;;;;;;4.05;1.38;;;20.70;99.90;;;;;;4889468;29;21032;-55
2022/10/27 12:05:04;;;;;;;2.95;1.10;;;21.00;99.90;;;;;;4893352;29;20471;-55
2022/10/27 12:07:32;;;;;;;4.57;1.25;;;21.20;99.90;;;;;;4861766;29;20056;-55
2022/10/27 12:10:03;;;;;;;3.20;1.40;;;21.30;99.90;;;;;;4875470;29;20089;-55
2022/10/27 12:12:40;;;;;;;3.50;1.20;;;21.30;99.90;;;;;;4883545;29;20142;-52
2022/10/27 12:15:33;;;;;;;5.15;1.25;;;21.20;99.90;;;;;;4890312;29;20048;-54
2022/10/27 12:18:36;;;;;;;5.15;1.30;;;21.20;99.90;;;;;;4883594;29;20052;-52
2022/10/27 12:21:26;;;;;;;4.68;1.40;;;21.30;99.90;;;;;;4882683;29;21029;-54
2022/10/27 12:24:07;;;;;;;2.45;1.20;;;21.50;99.90;;;;;;4886330;29;20056;-54
2022/10/27 12:26:42;;;;;;;2.72;1.20;;;21.60;99.90;;;;;;4900309;29;20099;-52
2022/10/27 12:29:10;;;;;;;4.90;1.40;;;21.80;99.90;;;;;;4888100;29;20065;-55
2022/10/27 12:31:52;;;;;;;3.95;1.40;;;21.80;99.90;;;;;;4890448;29;20052;-54
2022/10/27 12:34:22;;;;;;;2.83;1.02;;;21.80;99.90;;;;;;4888617;29;20089;-54
2022/10/27 12:37:05;;;;;;;4.75;1.15;;;21.70;99.90;;;;;;4888117;29;20135;-54
2022/10/27 12:39:48;;;;;;;5.75;1.70;;;21.70;99.90;;;;;;4886461;29;20467;-53
2022/10/27 12:42:23;;;;;;;3.38;1.20;;;21.80;99.90;;;;;;4889755;29;20048;-54
2022/10/27 12:45:29;;;;;;;3.38;1.40;;;21.70;99.90;;;;;;4886867;29;20080;-52
2022/10/27 12:48:07;;;;;;;3.97;1.15;;;21.70;99.90;;;;;;4888248;29;20138;-55
2022/10/27 12:50:59;;;;;;;5.63;1.42;;;21.60;99.90;;;;;;4887323;29;20044;-53
2022/10/27 12:53:40;;;;;;;4.03;1.43;;;21.50;99.90;;;;;;4884487;29;20044;-51
2022/10/27 12:56:41;;;;;;;6.50;1.30;;;21.50;99.90;;;;;;4899985;29;20631;-52
2022/10/27 12:59:25;;;;;;;8.55;1.30;;;21.40;99.90;;;;;;4895515;29;20060;-51
2022/10/27 13:01:54;;;;;;;3.65;1.30;;;21.30;99.90;;;;;;4886315;29;20051;-52
2022/10/27 13:04:48;;;;;;;4.38;1.50;;;21.20;99.90;;;;;;4886061;29;20589;-49